Aurora, Utah
Current Conditions -  °F | °C
As of 12:55 PM on Tuesday 21 Oct 2014 (Local Time) from KDTA Reporting Station
Scattered Clouds Scattered Clouds  
Wind Chill: 71°   Ceiling: Unl
Heat Index: 71°   Visibility: 10mi
Dew Point: 38°   Wind: 18mph
Humidity: 30%   Direction: 230°SW
Pressure: 29.96"   Gusts: 26mph
Location:  38.92°N, 111.93°W
Report Text: KDTA 211855Z AUTO 23016G23KT 10SM SCT065 22/04 A2996 RMK AO1 T02190035
Loading
Personal Weather Stations






























Interactive Weather Map
Tropical Storm Tracking
New forecast layout! Learn more

10-Day Weather Forecast

Advertisements
Track Severe Weather on mobile